Terminal Aerodrome Forecast
Issued by NWS

Home | Current Version | Previous Version | Text Only | Print | Product List | Glossary On
Versions: 1 2 3 4 5 6 7 8 9 10 11 12 13 14 15 16 17 18 19 20 21 22
000
FTUS43 KILX 180500
TAFCMI
TAF
KCMI 180530Z 1806/1906 VRB05KT P6SM SCT090
      TEMPO 1809/1812 4SM BR
     FM181400 07006KT P6SM SCT035
     FM190000 06005KT P6SM SKC=

USA.gov is the U.S. government's official web portal to all federal, state and local government web resources and services.